createdAt,value
2019-04-10T00:00:47.734Z,2
2019-04-10T00:01:46.848Z,2
2019-04-10T00:02:47.786Z,2
2019-04-10T00:03:46.863Z,2
2019-04-10T00:04:47.372Z,2
2019-04-10T00:05:47.923Z,2
2019-04-10T00:06:47.952Z,1.9
2019-04-10T00:07:47.961Z,1.9
2019-04-10T00:08:47.361Z,1.9
2019-04-10T00:09:47.517Z,1.9
2019-04-10T00:10:47.911Z,1.9
2019-04-10T00:11:47.381Z,1.9
2019-04-10T00:12:47.638Z,1.9
2019-04-10T00:13:47.427Z,1.9
2019-04-10T00:14:48.351Z,1.9
2019-04-10T00:15:48.605Z,1.9
2019-04-10T00:16:48.746Z,1.9
2019-04-10T00:17:47.638Z,1.9
2019-04-10T00:18:48.436Z,1.9
2019-04-10T00:19:47.847Z,1.9
2019-04-10T00:20:48.959Z,1.9
2019-04-10T00:21:47.847Z,1.9
2019-04-10T00:22:48.630Z,1.8
2019-04-10T00:23:47.959Z,1.8
2019-04-10T00:24:48.344Z,1.8
2019-04-10T00:25:48.761Z,1.8
2019-04-10T00:26:48.115Z,1.8
2019-04-10T00:27:48.169Z,1.8
2019-04-10T00:28:48.190Z,1.8
2019-04-10T00:29:48.749Z,1.8
2019-04-10T00:30:49.347Z,1.8
2019-04-10T00:31:48.789Z,1.8
2019-04-10T00:32:49.435Z,1.8
2019-04-10T00:33:49.264Z,1.8
2019-04-10T00:34:49.712Z,1.8
2019-04-10T00:35:49.750Z,1.7
2019-04-10T00:36:49.053Z,1.7
2019-04-10T00:37:49.212Z,1.7
2019-04-10T00:38:49.018Z,1.7
2019-04-10T00:39:49.043Z,1.7
2019-04-10T00:40:49.861Z,1.7
2019-04-10T00:41:48.941Z,1.7
2019-04-10T00:42:49.523Z,1.7
2019-04-10T00:43:49.109Z,1.7
2019-04-10T00:44:50.054Z,1.7
2019-04-10T00:45:49.426Z,1.7
2019-04-10T00:46:49.192Z,1.7
2019-04-10T00:47:49.245Z,1.7
2019-04-10T00:48:50.219Z,1.6
2019-04-10T00:49:50.315Z,1.6
2019-04-10T00:50:49.432Z,1.6
2019-04-10T00:51:49.965Z,1.6
2019-04-10T00:52:49.520Z,1.6
2019-04-10T00:53:49.779Z,1.6
2019-04-10T00:54:49.645Z,1.6
2019-04-10T00:55:50.290Z,1.6
2019-04-10T00:56:50.604Z,1.6
2019-04-10T00:57:49.880Z,1.6
2019-04-10T00:58:49.811Z,1.6
2019-04-10T00:59:50.485Z,1.6
2019-04-10T01:00:50.356Z,1.6
2019-04-10T01:01:50.024Z,1.6
2019-04-10T01:02:51.175Z,1.6
2019-04-10T01:03:51.138Z,1.6
2019-04-10T01:04:50.869Z,1.6
2019-04-10T01:05:50.352Z,1.6
2019-04-10T01:06:50.481Z,1.6
2019-04-10T01:07:50.259Z,1.6
2019-04-10T01:08:51.019Z,1.6
2019-04-10T01:09:50.351Z,1.5
2019-04-10T01:10:50.545Z,1.5
2019-04-10T01:11:51.620Z,1.5
2019-04-10T01:12:50.549Z,1.5
2019-04-10T01:13:51.600Z,1.5
2019-04-10T01:14:50.627Z,1.5
2019-04-10T01:15:50.985Z,1.5
2019-04-10T01:16:51.491Z,1.5
2019-04-10T01:17:50.810Z,1.5
2019-04-10T01:18:51.234Z,1.5
2019-04-10T01:19:50.881Z,1.5
2019-04-10T01:20:50.940Z,1.5
2019-04-10T01:21:50.996Z,1.5
2019-04-10T01:22:51.839Z,1.4
2019-04-10T01:23:51.141Z,1.4
2019-04-10T01:24:52.224Z,1.4
2019-04-10T01:25:51.177Z,1.4
2019-04-10T01:26:51.717Z,1.4
2019-04-10T01:27:52.168Z,1.4
2019-04-10T01:28:51.358Z,1.4
2019-04-10T01:29:51.599Z,1.4
2019-04-10T01:30:51.491Z,1.4
2019-04-10T01:31:51.553Z,1.4
2019-04-10T01:32:52.289Z,1.3
2019-04-10T01:33:52.624Z,1.3
2019-04-10T01:34:51.828Z,1.3
2019-04-10T01:35:51.779Z,1.3
2019-04-10T01:36:52.354Z,1.3
2019-04-10T01:37:56.506Z,1.3
2019-04-10T01:38:51.922Z,1.3
2019-04-10T01:39:52.797Z,1.3
2019-04-10T01:40:53.096Z,1.3
2019-04-10T01:41:52.279Z,1.3
2019-04-10T01:43:02.031Z,1.3
2019-04-10T01:43:52.196Z,1.3
2019-04-10T01:44:53.125Z,1.3
2019-04-10T01:45:52.258Z,1.3
2019-04-10T01:46:52.907Z,1.3
2019-04-10T01:47:53.277Z,1.3
2019-04-10T01:48:53.343Z,1.3
2019-04-10T01:49:53.649Z,1.2
2019-04-10T01:50:52.864Z,1.2
2019-04-10T01:51:52.638Z,1.2
2019-04-10T01:52:53.386Z,1.2
2019-04-10T01:53:55.108Z,1.2
2019-04-10T01:54:52.849Z,1.2
2019-04-10T01:55:53.491Z,1.2
2019-04-10T01:56:52.943Z,1.2
2019-04-10T01:57:52.976Z,1.2
2019-04-10T01:58:53.736Z,1.2
2019-04-10T01:59:54.180Z,1.1
2019-04-10T02:00:54.145Z,1.1
2019-04-10T02:01:53.172Z,1.1
2019-04-10T02:02:53.914Z,1.1
2019-04-10T02:03:54.232Z,1.1
2019-04-10T02:04:54.068Z,1.1
2019-04-10T02:05:54.584Z,1.1
2019-04-10T02:06:53.753Z,1.1
2019-04-10T02:08:02.901Z,1.1
2019-04-10T02:08:54.201Z,1.1
2019-04-10T02:09:54.029Z,1.1
2019-04-10T02:10:53.692Z,1
2019-04-10T02:11:54.410Z,1
2019-04-10T02:12:54.713Z,1
2019-04-10T02:13:54.050Z,1
2019-04-10T02:14:54.359Z,1
2019-04-10T02:15:54.448Z,1
2019-04-10T02:16:54.890Z,1
2019-04-10T02:17:55.093Z,1
2019-04-10T02:18:54.170Z,1
2019-04-10T02:19:54.531Z,1
2019-04-10T02:20:55.599Z,1
2019-04-10T02:21:54.596Z,1
2019-04-10T02:22:54.569Z,1
2019-04-10T02:23:54.549Z,0.9
2019-04-10T02:24:55.563Z,0.9
2019-04-10T02:25:54.890Z,0.9
2019-04-10T02:26:56.080Z,0.9
2019-04-10T02:27:54.792Z,0.9
2019-04-10T02:28:55.460Z,0.9
2019-04-10T02:29:55.748Z,0.9
2019-04-10T02:30:56.513Z,0.9
2019-04-10T02:31:56.709Z,0.9
2019-04-10T02:32:55.124Z,0.9
2019-04-10T02:33:56.926Z,0.9
2019-04-10T02:34:55.322Z,0.9
2019-04-10T02:35:55.126Z,0.9
2019-04-10T02:36:55.414Z,0.9
2019-04-10T02:37:56.145Z,0.9
2019-04-10T02:39:08.106Z,0.9
2019-04-10T02:39:56.675Z,0.9
2019-04-10T02:40:55.706Z,0.9
2019-04-10T02:41:56.159Z,0.9
2019-04-10T02:42:56.640Z,0.9
2019-04-10T02:43:55.684Z,0.9
2019-04-10T02:44:55.551Z,0.9
2019-04-10T02:45:55.887Z,0.9
2019-04-10T02:46:57.866Z,0.9
2019-04-10T02:47:55.736Z,0.9
2019-04-10T02:48:56.088Z,0.9
2019-04-10T02:49:56.615Z,0.8
2019-04-10T02:50:57.423Z,0.8
2019-04-10T02:51:56.985Z,0.8
2019-04-10T02:52:57.185Z,0.8
2019-04-10T02:53:57.720Z,0.8
2019-04-10T02:54:57.695Z,0.8
2019-04-10T02:55:57.936Z,0.8
2019-04-10T02:56:56.843Z,0.8
2019-04-10T02:57:56.461Z,0.8
2019-04-10T02:58:56.700Z,0.8
2019-04-10T02:59:57.527Z,0.9
2019-04-10T03:00:56.434Z,0.9
2019-04-10T03:01:57.838Z,0.9
2019-04-10T03:02:57.536Z,0.9
2019-04-10T03:03:56.792Z,0.9
2019-04-10T03:04:57.298Z,0.9
2019-04-10T03:05:56.726Z,0.9
2019-04-10T03:06:57.595Z,0.9
2019-04-10T03:07:58.214Z,0.9
2019-04-10T03:09:09.461Z,0.9
2019-04-10T03:10:08.536Z,0.8
2019-04-10T03:11:02.477Z,0.8
2019-04-10T03:11:57.388Z,0.8
2019-04-10T03:12:58.547Z,0.8
2019-04-10T03:13:59.067Z,0.8
2019-04-10T03:14:58.923Z,0.8
2019-04-10T03:15:57.754Z,0.8
2019-04-10T03:16:57.336Z,0.8
2019-04-10T03:17:57.378Z,0.9
2019-04-10T03:18:57.469Z,0.9
2019-04-10T03:19:58.050Z,0.9
2019-04-10T03:20:58.425Z,0.9
2019-04-10T03:21:57.737Z,0.9
2019-04-10T03:22:58.554Z,0.9
2019-04-10T03:23:58.009Z,0.9
2019-04-10T03:24:57.756Z,0.9
2019-04-10T03:25:57.810Z,0.9
2019-04-10T03:26:58.246Z,0.9
2019-04-10T03:27:58.696Z,0.9
2019-04-10T03:28:58.104Z,0.9
2019-04-10T03:29:58.106Z,0.8
2019-04-10T03:31:00.058Z,0.8
2019-04-10T03:31:59.469Z,0.8
2019-04-10T03:33:03.108Z,0.8
2019-04-10T03:33:59.118Z,0.8
2019-04-10T03:34:58.545Z,0.8
2019-04-10T03:35:58.931Z,0.8
2019-04-10T03:36:58.402Z,0.8
2019-04-10T03:37:59.360Z,0.8
2019-04-10T03:39:01.792Z,0.8
2019-04-10T03:39:59.344Z,0.8
2019-04-10T03:40:59.720Z,0.8
2019-04-10T03:41:59.503Z,0.8
2019-04-10T03:42:58.702Z,0.8
2019-04-10T03:43:58.784Z,0.8
2019-04-10T03:44:58.995Z,0.8
2019-04-10T03:45:59.170Z,0.8
2019-04-10T03:46:58.992Z,0.8
2019-04-10T03:47:59.964Z,0.8
2019-04-10T03:48:59.113Z,0.8
2019-04-10T03:49:59.130Z,0.8
2019-04-10T03:50:59.551Z,0.8
2019-04-10T03:51:59.238Z,0.8
2019-04-10T03:53:00.158Z,0.8
2019-04-10T03:53:59.557Z,0.8
2019-04-10T03:55:00.477Z,0.8
2019-04-10T03:55:59.489Z,0.8
2019-04-10T03:57:00.386Z,0.8
2019-04-10T03:58:00.468Z,0.8
2019-04-10T03:58:59.901Z,0.8
2019-04-10T03:59:59.719Z,0.8
2019-04-10T04:01:00.707Z,0.7
2019-04-10T04:01:59.931Z,0.7
2019-04-10T04:03:00.233Z,0.7
2019-04-10T04:03:59.927Z,0.7
2019-04-10T04:05:00.251Z,0.7
2019-04-10T04:06:00.166Z,0.7
2019-04-10T04:07:00.989Z,0.7
2019-04-10T04:08:01.186Z,0.7
2019-04-10T04:09:07.066Z,0.7
2019-04-10T04:10:00.897Z,0.7
2019-04-10T04:11:01.487Z,0.7
2019-04-10T04:12:00.706Z,0.7
2019-04-10T04:13:01.531Z,0.6
2019-04-10T04:14:00.598Z,0.6
2019-04-10T04:15:01.854Z,0.6
2019-04-10T04:16:01.994Z,0.6
2019-04-10T04:17:01.843Z,0.6
2019-04-10T04:18:02.406Z,0.6
2019-04-10T04:19:02.065Z,0.6
2019-04-10T04:20:02.413Z,0.6
2019-04-10T04:21:01.595Z,0.6
2019-04-10T04:22:01.029Z,0.6
2019-04-10T04:23:03.510Z,0.6
2019-04-10T04:24:01.409Z,0.6
2019-04-10T04:25:01.080Z,0.6
2019-04-10T04:26:03.023Z,0.6
2019-04-10T04:27:02.734Z,0.6
2019-04-10T04:28:01.233Z,0.6
2019-04-10T04:29:02.006Z,0.6
2019-04-10T04:30:02.229Z,0.5
2019-04-10T04:31:01.630Z,0.5
2019-04-10T04:32:02.506Z,0.5
2019-04-10T04:33:02.470Z,0.5
2019-04-10T04:34:02.009Z,0.5
2019-04-10T04:35:05.813Z,0.5
2019-04-10T04:36:02.304Z,0.5
2019-04-10T04:37:04.647Z,0.5
2019-04-10T04:38:02.845Z,0.5
2019-04-10T04:39:12.581Z,0.5
2019-04-10T04:40:03.124Z,0.5
2019-04-10T04:41:02.937Z,0.5
2019-04-10T04:42:03.321Z,0.5
2019-04-10T04:43:03.741Z,0.5
2019-04-10T04:44:02.542Z,0.5
2019-04-10T04:45:04.838Z,0.5
2019-04-10T04:46:03.279Z,0.5
2019-04-10T04:47:05.393Z,0.5
2019-04-10T04:48:03.907Z,0.5
2019-04-10T04:49:04.457Z,0.5
2019-04-10T04:50:03.429Z,0.6
2019-04-10T04:51:03.936Z,0.6
2019-04-10T04:52:04.619Z,0.6
2019-04-10T04:53:04.887Z,0.6
2019-04-10T04:54:04.497Z,0.5
2019-04-10T04:55:05.903Z,0.5
2019-04-10T04:56:03.875Z,0.5
2019-04-10T04:57:06.398Z,0.5
2019-04-10T04:58:06.105Z,0.6
2019-04-10T04:59:05.632Z,0.6
2019-04-10T05:00:06.254Z,0.6
2019-04-10T05:01:04.220Z,0.6
2019-04-10T05:02:03.411Z,0.6
2019-04-10T05:03:03.975Z,0.6
2019-04-10T05:04:03.577Z,0.6
2019-04-10T05:05:04.391Z,0.6
2019-04-10T05:06:03.781Z,0.6
2019-04-10T05:07:04.223Z,0.6
2019-04-10T05:08:05.322Z,0.6
2019-04-10T05:09:03.387Z,0.6
2019-04-10T05:10:03.522Z,0.6
2019-04-10T05:11:04.315Z,0.6
2019-04-10T05:12:03.553Z,0.6
2019-04-10T05:13:04.013Z,0.6
2019-04-10T05:14:04.855Z,0.6
2019-04-10T05:15:04.445Z,0.6
2019-04-10T05:16:03.753Z,0.6
2019-04-10T05:17:03.915Z,0.6
2019-04-10T05:18:04.162Z,0.6
2019-04-10T05:19:03.894Z,0.6
2019-04-10T05:20:04.917Z,0.6
2019-04-10T05:21:05.049Z,0.6
2019-04-10T05:22:04.177Z,0.6
2019-04-10T05:23:04.166Z,0.6
2019-04-10T05:24:05.204Z,0.6
2019-04-10T05:25:04.800Z,0.6
2019-04-10T05:26:04.567Z,0.6
2019-04-10T05:27:04.390Z,0.6
2019-04-10T05:28:04.456Z,0.6
2019-04-10T05:29:04.698Z,0.6
2019-04-10T05:30:04.534Z,0.6
2019-04-10T05:31:04.585Z,0.6
2019-04-10T05:32:05.079Z,0.6
2019-04-10T05:33:04.691Z,0.6
2019-04-10T05:34:05.848Z,0.6
2019-04-10T05:35:06.858Z,0.7
2019-04-10T05:36:04.890Z,0.7
2019-04-10T05:37:05.925Z,0.7
2019-04-10T05:38:04.939Z,0.7
2019-04-10T05:39:05.053Z,0.7
2019-04-10T05:40:05.452Z,0.7
2019-04-10T05:41:05.095Z,0.7
2019-04-10T05:42:08.463Z,0.7
2019-04-10T05:43:05.830Z,0.7
2019-04-10T05:44:05.240Z,0.7
2019-04-10T05:45:05.298Z,0.8
2019-04-10T05:46:05.376Z,0.8
2019-04-10T05:47:05.498Z,0.8
2019-04-10T05:48:06.900Z,0.8
2019-04-10T05:49:06.428Z,0.8
2019-04-10T05:50:06.053Z,0.8
2019-04-10T05:51:07.393Z,0.8
2019-04-10T05:52:06.091Z,0.8
2019-04-10T05:53:05.724Z,0.8
2019-04-10T05:54:06.477Z,0.8
2019-04-10T05:55:06.291Z,0.8
2019-04-10T05:56:05.893Z,0.8
2019-04-10T05:57:06.143Z,0.9
2019-04-10T05:58:06.879Z,0.9
2019-04-10T05:59:08.342Z,0.9
2019-04-10T06:00:06.156Z,0.9
2019-04-10T06:01:07.316Z,0.9
2019-04-10T06:02:06.728Z,0.9
2019-04-10T06:03:06.305Z,0.9
2019-04-10T06:04:07.196Z,0.9
2019-04-10T06:05:06.384Z,1
2019-04-10T06:06:06.434Z,1
2019-04-10T06:07:06.478Z,1
2019-04-10T06:08:06.528Z,1
2019-04-10T06:09:06.646Z,1
2019-04-10T06:10:08.981Z,1.1
2019-04-10T06:11:06.761Z,1.1
2019-04-10T06:12:10.212Z,1.1
2019-04-10T06:13:06.865Z,1.1
2019-04-10T06:14:07.863Z,1.1
2019-04-10T06:15:06.950Z,1.1
2019-04-10T06:16:07.635Z,1.2
2019-04-10T06:17:07.968Z,1.2
2019-04-10T06:18:07.158Z,1.2
2019-04-10T06:19:07.339Z,1.3
2019-04-10T06:20:07.235Z,1.3
2019-04-10T06:21:07.297Z,1.4
2019-04-10T06:22:09.437Z,1.4
2019-04-10T06:23:07.481Z,1.4
2019-04-10T06:24:07.852Z,1.5
2019-04-10T06:25:09.083Z,1.5
2019-04-10T06:26:07.561Z,1.5
2019-04-10T06:27:08.162Z,1.5
2019-04-10T06:28:07.670Z,1.6
2019-04-10T06:29:07.731Z,1.6
2019-04-10T06:30:07.898Z,1.6
2019-04-10T06:31:08.271Z,1.6
2019-04-10T06:32:07.892Z,1.7
2019-04-10T06:33:08.194Z,1.7
2019-04-10T06:34:08.875Z,1.7
2019-04-10T06:35:08.259Z,1.8
2019-04-10T06:37:08.720Z,1.9
2019-04-10T06:38:08.272Z,1.9
2019-04-10T06:39:08.863Z,1.9
2019-04-10T06:40:16.730Z,2
2019-04-10T06:41:08.499Z,2
2019-04-10T06:42:08.579Z,2.1
2019-04-10T06:43:08.824Z,2.1
2019-04-10T06:44:09.804Z,2.1
2019-04-10T06:45:09.373Z,2.2
2019-04-10T06:46:08.630Z,2.2
2019-04-10T06:47:09.505Z,2.3
2019-04-10T06:48:08.970Z,2.3
2019-04-10T06:49:09.253Z,2.3
2019-04-10T06:50:08.844Z,2.3
2019-04-10T06:51:08.899Z,2.3
2019-04-10T06:52:09.927Z,2.4
2019-04-10T06:53:20.552Z,2.4
2019-04-10T06:54:11.280Z,2.4
2019-04-10T06:55:09.423Z,2.4
2019-04-10T06:56:09.886Z,2.5
2019-04-10T06:57:10.371Z,2.5
2019-04-10T06:58:09.657Z,2.5
2019-04-10T06:59:09.377Z,2.6
2019-04-10T07:00:13.588Z,2.6
2019-04-10T07:01:10.387Z,2.6
2019-04-10T07:02:20.202Z,2.7
2019-04-10T07:03:10.579Z,2.8
2019-04-10T07:04:09.993Z,2.9
2019-04-10T07:05:11.697Z,3
2019-04-10T07:06:16.913Z,3
2019-04-10T07:07:12.873Z,3
2019-04-10T07:08:15.980Z,3.2
2019-04-10T07:09:09.938Z,3.2
2019-04-10T07:10:22.162Z,3.3
2019-04-10T07:11:12.796Z,3.3
2019-04-10T07:12:10.119Z,3.4
2019-04-10T07:13:11.600Z,3.4
2019-04-10T07:14:13.505Z,3.5
2019-04-10T07:15:10.626Z,3.6
2019-04-10T07:16:11.302Z,3.6
2019-04-10T07:17:11.220Z,3.7
2019-04-10T07:19:12.759Z,3.8
2019-04-10T07:20:10.495Z,3.8
2019-04-10T07:21:11.025Z,3.9
2019-04-10T07:22:12.854Z,4
2019-04-10T07:23:13.092Z,4
2019-04-10T07:24:13.333Z,4.1
2019-04-10T07:25:12.498Z,4.1
2019-04-10T07:26:10.734Z,4.1
2019-04-10T07:27:11.830Z,4.2
2019-04-10T07:28:12.201Z,4.3
2019-04-10T07:29:11.069Z,4.3
2019-04-10T07:30:11.857Z,4.3
2019-04-10T07:31:11.619Z,4.4
2019-04-10T07:32:12.255Z,4.4
2019-04-10T07:33:14.787Z,4.4
2019-04-10T07:34:11.182Z,4.5
2019-04-10T07:35:14.210Z,4.5
2019-04-10T07:36:13.678Z,4.6
2019-04-10T07:37:14.717Z,4.6
2019-04-10T07:38:11.798Z,4.6
2019-04-10T07:39:11.466Z,4.7
2019-04-10T07:40:12.226Z,4.7
2019-04-10T07:41:17.486Z,4.8
2019-04-10T07:42:11.704Z,4.8
2019-04-10T07:43:11.686Z,4.9
2019-04-10T07:44:12.113Z,5
2019-04-10T07:45:11.814Z,5
2019-04-10T07:46:13.090Z,5.1
2019-04-10T07:47:11.930Z,5.1
2019-04-10T07:48:12.846Z,5.2
2019-04-10T07:49:12.037Z,5.2
2019-04-10T07:50:12.250Z,5.3
2019-04-10T07:51:12.124Z,5.3
2019-04-10T07:52:12.617Z,5.3
2019-04-10T07:53:12.760Z,5.4
2019-04-10T07:54:14.599Z,5.4
2019-04-10T07:55:12.808Z,5.4
2019-04-10T07:56:16.087Z,5.5
2019-04-10T07:57:12.481Z,5.5
2019-04-10T07:58:13.187Z,5.6
2019-04-10T07:59:12.979Z,5.6
2019-04-10T08:00:12.812Z,5.7
2019-04-10T08:01:14.051Z,5.7
2019-04-10T08:02:12.817Z,5.8
2019-04-10T08:03:14.501Z,5.8
2019-04-10T08:04:13.079Z,5.8
2019-04-10T08:05:12.997Z,5.8
2019-04-10T08:06:13.200Z,5.8
2019-04-10T08:07:24.790Z,5.9
2019-04-10T08:08:13.825Z,6
2019-04-10T08:09:14.627Z,6
2019-04-10T08:10:13.187Z,6
2019-04-10T08:11:13.372Z,6.1
2019-04-10T08:12:15.458Z,6.1
2019-04-10T08:13:14.101Z,6.1
2019-04-10T08:14:14.566Z,6.2
2019-04-10T08:15:13.492Z,6.1
2019-04-10T08:16:13.575Z,5.9
2019-04-10T08:17:14.286Z,5.8
2019-04-10T08:18:14.630Z,5.8
2019-04-10T08:19:14.582Z,5.8
2019-04-10T08:20:13.747Z,5.9
2019-04-10T08:21:13.787Z,6
2019-04-10T08:22:14.407Z,6.1
2019-04-10T08:23:14.057Z,6.1
2019-04-10T08:24:14.017Z,6.1
2019-04-10T08:25:14.282Z,6.2
2019-04-10T08:26:14.338Z,6.3
2019-04-10T08:27:14.480Z,6.4
2019-04-10T08:28:14.210Z,6.5
2019-04-10T08:29:14.302Z,6.5
2019-04-10T08:30:15.375Z,6.6
2019-04-10T08:31:14.920Z,6.6
2019-04-10T08:32:14.404Z,6.5
2019-04-10T08:33:14.527Z,6.4
2019-04-10T08:34:15.171Z,6.4
2019-04-10T08:35:15.432Z,6.4
2019-04-10T08:36:15.425Z,6.3
2019-04-10T08:37:17.193Z,6.3
2019-04-10T08:38:15.193Z,6.3
2019-04-10T08:39:28.074Z,6.3
2019-04-10T08:40:15.677Z,6.3
2019-04-10T08:41:15.016Z,6.3
2019-04-10T08:42:15.256Z,6.3
2019-04-10T08:43:15.827Z,6.3
2019-04-10T08:44:15.621Z,6.3
2019-04-10T08:45:15.235Z,6.3
2019-04-10T08:46:16.263Z,6.3
2019-04-10T08:47:15.520Z,6.3
2019-04-10T08:48:15.520Z,6.3
2019-04-10T08:49:16.280Z,6.3
2019-04-10T08:50:15.476Z,6.3
2019-04-10T08:51:15.540Z,6.3
2019-04-10T08:52:16.597Z,6.3
2019-04-10T08:53:15.651Z,6.3
2019-04-10T08:54:16.181Z,6.3
2019-04-10T08:55:15.743Z,6.3
2019-04-10T08:56:32.904Z,6.3
2019-04-10T08:57:17.128Z,6.3
2019-04-10T08:58:16.655Z,6.3
2019-04-10T08:59:15.939Z,6.2
2019-04-10T09:00:18.483Z,6.2
2019-04-10T09:01:16.053Z,6.2
2019-04-10T09:02:16.116Z,6.2
2019-04-10T09:03:16.995Z,6.2
2019-04-10T09:04:16.174Z,6.2
2019-04-10T09:05:17.429Z,6.2
2019-04-10T09:06:17.288Z,6.3
2019-04-10T09:07:16.332Z,6.4
2019-04-10T09:08:16.998Z,6.6
2019-04-10T09:09:17.300Z,6.8
2019-04-10T09:10:16.502Z,7
2019-04-10T09:11:24.610Z,7.1
2019-04-10T09:12:17.747Z,7.3
2019-04-10T09:13:16.823Z,7.4
2019-04-10T09:14:17.126Z,7.4
2019-04-10T09:15:18.036Z,7.6
2019-04-10T09:16:18.303Z,7.7
2019-04-10T09:17:17.351Z,7.8
2019-04-10T09:18:16.958Z,7.9
2019-04-10T09:19:18.842Z,7.9
2019-04-10T09:20:17.057Z,8
2019-04-10T09:21:17.473Z,8.1
2019-04-10T09:22:17.244Z,8.2
2019-04-10T09:23:30.240Z,8.3
2019-04-10T09:24:17.450Z,8.4
2019-04-10T09:25:17.819Z,8.6
2019-04-10T09:26:17.325Z,8.7
2019-04-10T09:27:17.364Z,8.6
2019-04-10T09:28:18.170Z,8.6
2019-04-10T09:29:18.152Z,8.6
2019-04-10T09:30:18.412Z,8.7
2019-04-10T09:31:17.780Z,8.7
2019-04-10T09:32:18.085Z,8.8
2019-04-10T09:33:23.261Z,8.9
2019-04-10T09:34:18.048Z,9.1
2019-04-10T09:35:17.843Z,9.2
2019-04-10T09:36:18.268Z,9.3
2019-04-10T09:37:17.957Z,9.3
2019-04-10T09:38:18.820Z,9.3
2019-04-10T09:39:19.070Z,9.4
2019-04-10T09:40:18.358Z,9.4
2019-04-10T09:41:18.201Z,9.5
2019-04-10T09:42:19.113Z,9.4
2019-04-10T09:43:18.328Z,9.5
2019-04-10T09:44:18.631Z,9.6
2019-04-10T09:45:18.386Z,9.7
2019-04-10T09:46:18.449Z,9.9
2019-04-10T09:47:18.509Z,10
2019-04-10T09:48:18.681Z,10.1
2019-04-10T09:49:30.323Z,10.2
2019-04-10T09:50:19.317Z,10.3
2019-04-10T09:51:19.597Z,10.4
2019-04-10T09:52:19.255Z,10.2
2019-04-10T09:53:19.105Z,10
2019-04-10T09:54:18.978Z,9.9
2019-04-10T09:55:20.104Z,9.7
2019-04-10T09:56:36.549Z,9.6
2019-04-10T09:57:20.062Z,9.5
2019-04-10T09:58:19.824Z,9.5
2019-04-10T09:59:30.509Z,9.5
2019-04-10T10:00:19.376Z,9.8
2019-04-10T10:01:19.939Z,10.1
2019-04-10T10:02:19.799Z,10.4
2019-04-10T10:03:19.511Z,10.5
2019-04-10T10:04:19.558Z,10.7
2019-04-10T10:05:20.248Z,10.8
2019-04-10T10:06:25.965Z,10.8
2019-04-10T10:07:20.689Z,10.5
2019-04-10T10:08:19.895Z,10.4
2019-04-10T10:09:19.718Z,10.3
2019-04-10T10:10:20.632Z,10.3
2019-04-10T10:11:20.191Z,10.6
2019-04-10T10:12:20.179Z,10.9
2019-04-10T10:13:21.319Z,11.1
2019-04-10T10:14:20.900Z,11.4
2019-04-10T10:15:20.948Z,11.6
2019-04-10T10:16:20.979Z,11.8
2019-04-10T10:17:20.415Z,11.9
2019-04-10T10:18:21.331Z,12.1
2019-04-10T10:19:20.187Z,12.2
2019-04-10T10:20:20.224Z,12.3
2019-04-10T10:21:20.701Z,12.4
2019-04-10T10:22:20.996Z,12.5
2019-04-10T10:23:20.480Z,12.5
2019-04-10T10:24:20.899Z,12.3
2019-04-10T10:25:21.414Z,12.1
2019-04-10T10:26:22.221Z,12.1
2019-04-10T10:27:21.949Z,12
2019-04-10T10:28:22.846Z,11.8
2019-04-10T10:29:21.713Z,11.7
2019-04-10T10:30:20.970Z,11.5
2019-04-10T10:31:22.103Z,11.4
2019-04-10T10:32:21.254Z,11.5
2019-04-10T10:33:21.571Z,11.5
2019-04-10T10:34:21.128Z,11.4
2019-04-10T10:35:21.017Z,11.3
2019-04-10T10:36:22.025Z,11.2
2019-04-10T10:37:22.037Z,11.1
2019-04-10T10:38:21.174Z,11.1
2019-04-10T10:39:21.201Z,11
2019-04-10T10:40:23.369Z,10.9
2019-04-10T10:41:22.994Z,10.8
2019-04-10T10:42:21.775Z,10.8
2019-04-10T10:43:22.547Z,10.8
2019-04-10T10:44:22.318Z,10.9
2019-04-10T10:45:22.843Z,11.2
2019-04-10T10:46:23.066Z,11.6
2019-04-10T10:47:22.502Z,11.8
2019-04-10T10:48:23.975Z,12
2019-04-10T10:49:22.295Z,12.2
2019-04-10T10:50:23.691Z,12.5
2019-04-10T10:51:22.542Z,12.7
2019-04-10T10:52:23.615Z,12.7
2019-04-10T10:53:24.037Z,12.8
2019-04-10T10:54:23.080Z,12.9
2019-04-10T10:55:23.209Z,13
2019-04-10T10:56:30.878Z,13
2019-04-10T10:57:24.822Z,13
2019-04-10T10:58:22.206Z,13.1
2019-04-10T10:59:22.260Z,13.3
2019-04-10T11:00:23.078Z,13.4
2019-04-10T11:01:24.111Z,13.5
2019-04-10T11:02:22.465Z,13.7
2019-04-10T11:03:22.795Z,13.8
2019-04-10T11:04:23.222Z,13.9
2019-04-10T11:05:23.140Z,13.9
2019-04-10T11:06:24.748Z,14
2019-04-10T11:07:22.793Z,14.2
2019-04-10T11:08:24.018Z,14.3
2019-04-10T11:09:23.848Z,14.4
2019-04-10T11:10:25.825Z,14.5
2019-04-10T11:11:24.033Z,14.7
2019-04-10T11:12:24.162Z,14.8
2019-04-10T11:13:24.213Z,14.8
2019-04-10T11:14:23.682Z,14.8
2019-04-10T11:15:27.835Z,14.8
2019-04-10T11:16:23.281Z,15
2019-04-10T11:17:23.343Z,15.1
2019-04-10T11:18:24.725Z,15.2
2019-04-10T11:19:23.705Z,15.3
2019-04-10T11:20:24.154Z,15.4
2019-04-10T11:21:24.668Z,15.5
2019-04-10T11:22:25.701Z,15.5
2019-04-10T11:23:24.523Z,15.5
2019-04-10T11:24:25.423Z,15.5
2019-04-10T11:25:26.110Z,15.5
2019-04-10T11:26:39.968Z,15.5
2019-04-10T11:27:23.865Z,15.5
2019-04-10T11:29:26.482Z,15.7
2019-04-10T11:30:24.871Z,15.8
2019-04-10T11:31:25.265Z,15.8
2019-04-10T11:32:24.412Z,15.9
2019-04-10T11:33:24.966Z,16
2019-04-10T11:34:29.195Z,16
2019-04-10T11:35:26.816Z,16.2
2019-04-10T11:36:32.274Z,16.1
2019-04-10T11:37:34.924Z,16.1
2019-04-10T11:38:27.291Z,16.2
2019-04-10T11:39:26.725Z,16.2
2019-04-10T11:40:31.766Z,16.2
2019-04-10T11:41:26.109Z,16.2
2019-04-10T11:42:26.462Z,16.2
2019-04-10T11:43:26.116Z,16.2
2019-04-10T11:44:27.266Z,16.2
2019-04-10T11:45:28.720Z,16.3
2019-04-10T11:46:28.297Z,16.4
2019-04-10T11:47:26.738Z,16.5
2019-04-10T11:48:30.700Z,16.4
2019-04-10T11:49:36.736Z,16.5
2019-04-10T11:50:34.239Z,16.5
2019-04-10T11:51:30.558Z,16.4
2019-04-10T11:52:39.469Z,16.4
2019-04-10T11:53:35.813Z,16.3
2019-04-10T11:54:28.133Z,16.4
2019-04-10T11:55:33.055Z,16.4
2019-04-10T11:56:43.025Z,16.3
2019-04-10T11:57:32.920Z,16.5
2019-04-10T11:58:28.980Z,16.4
2019-04-10T11:59:32.826Z,16.6
2019-04-10T12:00:30.700Z,16.7
2019-04-10T12:01:28.044Z,16.8
2019-04-10T12:02:31.139Z,16.9
2019-04-10T12:03:28.234Z,16.8
2019-04-10T12:04:29.471Z,16.7
2019-04-10T12:05:29.597Z,16.6
2019-04-10T12:06:33.771Z,16.6
2019-04-10T12:07:54.660Z,16.8
2019-04-10T12:08:47.275Z,16.8
2019-04-10T12:10:44.007Z,16.8
2019-04-10T12:11:28.809Z,16.9
2019-04-10T12:12:28.574Z,16.9
2019-04-10T12:13:27.576Z,16.8
2019-04-10T12:14:27.863Z,16.6
2019-04-10T12:15:28.114Z,16.6
2019-04-10T12:16:30.081Z,16.7
2019-04-10T12:17:27.699Z,16.7
2019-04-10T12:18:29.431Z,16.8
2019-04-10T12:19:26.950Z,16.9
2019-04-10T12:20:27.099Z,17
2019-04-10T12:21:26.740Z,17.1
2019-04-10T12:22:29.581Z,17.1
2019-04-10T12:23:29.267Z,17.2
2019-04-10T12:24:30.281Z,17.3
2019-04-10T12:25:32.248Z,17.3
2019-04-10T12:25:32.252Z,17.3
2019-04-10T12:27:09.364Z,17.4
2019-04-10T12:27:27.388Z,17.2
2019-04-10T12:28:27.706Z,17.3
2019-04-10T12:29:43.992Z,17.3
2019-04-10T12:29:45.102Z,17.3
2019-04-10T12:30:27.231Z,17.3
2019-04-10T12:31:28.089Z,17.2
2019-04-10T12:34:44.807Z,17.3
2019-04-10T12:35:27.731Z,17.3
2019-04-10T12:36:28.717Z,17.4
2019-04-10T12:38:13.291Z,17.4
2019-04-10T12:38:35.919Z,17.5
2019-04-10T12:39:27.983Z,17.5
2019-04-10T12:40:44.603Z,17.4
2019-04-10T12:41:27.777Z,17.5
2019-04-10T12:42:28.124Z,17.6
2019-04-10T12:43:45.148Z,17.5
2019-04-10T12:44:27.935Z,17.6
2019-04-10T12:45:28.345Z,17.5
2019-04-10T12:46:43.549Z,17.6
2019-04-10T12:47:28.118Z,17.6
2019-04-10T12:48:28.498Z,17.6
2019-04-10T12:49:17.089Z,17.6
2019-04-10T12:50:08.217Z,17.5
2019-04-10T12:50:29.329Z,17.5
2019-04-10T12:51:28.309Z,17.5
2019-04-10T12:52:41.311Z,17.6
2019-04-10T12:53:29.374Z,17.6
2019-04-10T12:54:28.462Z,17.6
2019-04-10T12:55:14.470Z,17.6
2019-04-10T12:55:36.676Z,17.5
2019-04-10T12:56:28.596Z,17.5
2019-04-10T12:58:17.133Z,17.5
2019-04-10T12:59:06.864Z,17.6
2019-04-10T12:59:29.577Z,17.7
2019-04-10T13:00:28.888Z,17.6
2019-04-10T13:01:38.610Z,17.7
2019-04-10T13:02:30.188Z,17.5
2019-04-10T13:03:29.371Z,17.6
2019-04-10T13:04:13.788Z,17.6
2019-04-10T13:04:33.328Z,17.6
2019-04-10T13:05:29.308Z,17.7
2019-04-10T13:06:46.386Z,17.7
2019-04-10T13:07:29.664Z,17.6
2019-04-10T13:08:47.091Z,17.6
2019-04-10T13:09:20.605Z,17.6
2019-04-10T13:09:42.479Z,17.5
2019-04-10T13:10:29.570Z,17.5
2019-04-10T13:11:30.477Z,17.5
2019-04-10T13:12:29.430Z,17.5
2019-04-10T13:13:30.283Z,17.5
2019-04-10T13:14:30.678Z,17.4
2019-04-10T13:15:29.770Z,17.4
2019-04-10T13:16:29.967Z,17.5
2019-04-10T13:17:29.688Z,17.5
2019-04-10T13:18:30.175Z,17.6
2019-04-10T13:19:29.805Z,17.6
2019-04-10T13:20:29.962Z,17.6
2019-04-10T13:21:30.493Z,17.6
2019-04-10T13:22:30.020Z,17.7
2019-04-10T13:23:30.886Z,17.7
2019-04-10T13:24:30.110Z,17.6
2019-04-10T13:25:30.291Z,17.5
2019-04-10T13:26:30.186Z,17.6
2019-04-10T13:27:30.584Z,17.7
2019-04-10T13:28:30.289Z,17.6
2019-04-10T13:29:30.315Z,17.6
2019-04-10T13:30:40.294Z,17.7
2019-04-10T13:31:30.477Z,17.6
2019-04-10T13:32:30.491Z,17.7
2019-04-10T13:33:30.957Z,17.6
2019-04-10T13:34:30.585Z,17.5
2019-04-10T13:35:30.685Z,17.5
2019-04-10T13:36:31.359Z,17.6
2019-04-10T13:37:31.661Z,17.5
2019-04-10T13:38:33.894Z,17.6
2019-04-10T13:39:30.917Z,17.6
2019-04-10T13:40:31.994Z,17.4
2019-04-10T13:41:30.936Z,17.5
2019-04-10T13:42:31.597Z,17.5